createdAt,value
2023-02-27T00:01:13.141Z,102632.50
2023-02-27T00:03:40.770Z,102631.56
2023-02-27T00:06:09.174Z,102633.16
2023-02-27T00:08:36.507Z,102644.13
2023-02-27T00:11:07.015Z,102641.44
2023-02-27T00:13:35.406Z,102638.63
2023-02-27T00:16:03.602Z,102638.63
2023-02-27T00:18:30.922Z,102639.41
2023-02-27T00:21:04.888Z,102633.22
2023-02-27T00:23:35.402Z,102631.44
2023-02-27T00:26:02.909Z,102629.50
2023-02-27T00:28:30.525Z,102633.00
2023-02-27T00:31:00.963Z,102627.41
2023-02-27T00:33:34.828Z,102622.25
2023-02-27T00:36:04.765Z,102627.41
2023-02-27T00:38:37.728Z,102629.13
2023-02-27T00:41:11.276Z,102621.47
2023-02-27T00:43:57.080Z,102628.69
2023-02-27T00:46:56.900Z,102632.97
2023-02-27T00:49:47.900Z,102626.78
2023-02-27T00:52:24.793Z,102627.69
2023-02-27T00:54:52.194Z,102620.56
2023-02-27T00:57:19.422Z,102627.59
2023-02-27T01:00:10.563Z,102622.97
2023-02-27T01:03:15.863Z,102623.66
2023-02-27T01:05:59.607Z,102620.28
2023-02-27T01:08:30.376Z,102621.78
2023-02-27T01:11:01.387Z,102616.50
2023-02-27T01:16:57.049Z,102616.28
2023-02-27T01:19:41.239Z,102613.25
2023-02-27T01:22:27.981Z,102610.88
2023-02-27T01:24:55.536Z,102613.47
2023-02-27T01:27:26.311Z,102614.25
2023-02-27T01:29:56.381Z,102611.56
2023-02-27T01:32:28.278Z,102613.25
2023-02-27T01:35:02.595Z,102612.28
2023-02-27T01:37:35.848Z,102602.69
2023-02-27T01:40:04.538Z,102603.25
2023-02-27T01:42:47.421Z,102606.06
2023-02-27T01:45:43.031Z,102607.75
2023-02-27T01:48:20.341Z,102606.75
2023-02-27T01:51:12.551Z,102615.31
2023-02-27T01:54:02.300Z,102612.72
2023-02-27T01:57:08.464Z,102611.03
2023-02-27T01:59:42.022Z,102613.41
2023-02-27T02:02:26.124Z,102616.00
2023-02-27T02:04:57.585Z,102614.88
2023-02-27T02:07:33.641Z,102616.34
2023-02-27T02:10:02.833Z,102609.38
2023-02-27T02:12:45.896Z,102613.53
2023-02-27T02:15:36.470Z,102613.41
2023-02-27T02:18:33.032Z,102607.13
2023-02-27T02:21:50.827Z,102616.59
2023-02-27T02:24:29.988Z,102618.94
2023-02-27T02:27:30.140Z,102614.47
2023-02-27T02:30:48.380Z,102623.91
2023-02-27T02:33:50.909Z,102614.91
2023-02-27T02:37:23.395Z,102626.94
2023-02-27T02:40:21.194Z,102622.34
2023-02-27T02:43:28.981Z,102626.53
2023-02-27T02:46:33.261Z,102618.53
2023-02-27T02:49:45.387Z,102622.69
2023-02-27T02:52:51.489Z,102622.69
2023-02-27T02:55:37.728Z,102624.38
2023-02-27T02:58:32.819Z,102616.50
2023-02-27T03:01:18.472Z,102612.13
2023-02-27T03:03:58.628Z,102613.47
2023-02-27T03:06:38.734Z,102612.56
2023-02-27T03:09:35.931Z,102618.53
2023-02-27T03:12:09.158Z,102622.56
2023-02-27T03:15:13.759Z,102624.41
2023-02-27T03:17:53.076Z,102620.66
2023-02-27T03:20:35.259Z,102634.38
2023-02-27T03:23:11.334Z,102634.19
2023-02-27T03:25:44.067Z,102637.56
2023-02-27T03:28:19.264Z,102634.03
2023-02-27T03:31:19.852Z,102637.56
2023-02-27T03:34:11.672Z,102639.91
2023-02-27T03:36:54.666Z,102641.47
2023-02-27T03:39:33.001Z,102643.94
2023-02-27T03:42:18.030Z,102647.31
2023-02-27T03:45:16.822Z,102646.97
2023-02-27T03:47:44.731Z,102643.38
2023-02-27T03:50:12.926Z,102640.00
2023-02-27T03:52:44.623Z,102639.09
2023-02-27T03:55:21.867Z,102643.28
2023-02-27T03:57:51.497Z,102648.56
2023-02-27T04:00:24.222Z,102644.16
2023-02-27T04:02:54.292Z,102651.03
2023-02-27T04:05:22.200Z,102652.72
2023-02-27T04:07:52.157Z,102654.50
2023-02-27T04:10:25.640Z,102654.50
2023-02-27T04:13:20.785Z,102660.47
2023-02-27T04:16:19.500Z,102664.50
2023-02-27T04:19:34.441Z,102657.53
2023-02-27T04:22:22.818Z,102654.94
2023-02-27T04:25:39.537Z,102654.03
2023-02-27T04:28:31.802Z,102659.31
2023-02-27T04:31:24.991Z,102653.38
2023-02-27T04:34:08.003Z,102655.94
2023-02-27T04:37:01.631Z,102660.22
2023-02-27T04:39:44.602Z,102666.06
2023-02-27T04:42:20.100Z,102661.59
2023-02-27T04:44:50.200Z,102670.09
2023-02-27T04:47:20.023Z,102671.78
2023-02-27T04:50:06.493Z,102668.19
2023-02-27T04:52:43.201Z,102675.84
2023-02-27T04:55:43.582Z,102677.31
2023-02-27T04:58:34.763Z,102675.47
2023-02-27T05:01:10.295Z,102685.69
2023-02-27T05:03:47.423Z,102688.16
2023-02-27T05:06:18.875Z,102689.75
2023-02-27T05:09:22.522Z,102689.63
2023-02-27T05:12:04.153Z,102681.75
2023-02-27T05:14:46.783Z,102690.28
2023-02-27T05:17:35.170Z,102683.22
2023-02-27T05:20:05.612Z,102694.44
2023-02-27T05:22:49.619Z,102680.41
2023-02-27T05:25:31.778Z,102687.38
2023-02-27T05:28:24.558Z,102684.66
2023-02-27T05:31:05.163Z,102692.28
2023-02-27T05:33:53.004Z,102689.69
2023-02-27T05:36:47.044Z,102706.13
2023-02-27T05:39:16.542Z,102699.00
2023-02-27T05:41:58.596Z,102706.78
2023-02-27T05:44:38.722Z,102700.59
2023-02-27T05:47:13.022Z,102704.63
2023-02-27T05:49:48.386Z,102702.94
2023-02-27T05:52:22.195Z,102703.59
2023-02-27T05:55:29.814Z,102710.34
2023-02-27T05:58:15.703Z,102721.56
2023-02-27T06:00:53.162Z,102716.28
2023-02-27T06:03:21.877Z,102712.91
2023-02-27T06:05:53.612Z,102719.75
2023-02-27T06:08:22.249Z,102719.66
2023-02-27T06:10:52.469Z,102723.13
2023-02-27T06:13:20.107Z,102724.72
2023-02-27T06:15:47.972Z,102729.88
2023-02-27T06:18:17.462Z,102739.16
2023-02-27T06:20:47.051Z,102740.06
2023-02-27T06:23:15.154Z,102736.72
2023-02-27T06:25:42.389Z,102743.56
2023-02-27T06:28:10.674Z,102745.38
2023-02-27T06:30:38.696Z,102751.31
2023-02-27T06:33:06.600Z,102751.56
2023-02-27T06:35:34.335Z,102751.66
2023-02-27T06:38:01.645Z,102747.63
2023-02-27T06:40:29.159Z,102754.75
2023-02-27T06:42:56.819Z,102757.53
2023-02-27T06:45:24.548Z,102756.75
2023-02-27T06:47:52.200Z,102757.91
2023-02-27T06:50:19.726Z,102760.84
2023-02-27T06:52:47.063Z,102772.44
2023-02-27T06:55:20.040Z,102770.22
2023-02-27T06:57:48.393Z,102774.84
2023-02-27T07:00:17.376Z,102787.47
2023-02-27T07:02:44.917Z,102785.91
2023-02-27T07:05:12.373Z,102794.66
2023-02-27T07:07:40.946Z,102792.75
2023-02-27T07:10:13.855Z,102804.34
2023-02-27T07:12:50.251Z,102800.31
2023-02-27T07:15:20.716Z,102804.16
2023-02-27T07:17:57.472Z,102808.09
2023-02-27T07:20:25.529Z,102814.75
2023-02-27T07:23:00.737Z,102812.66
2023-02-27T07:31:38.996Z,102823.47
2023-02-27T07:34:32.615Z,102825.88
2023-02-27T07:37:00.301Z,102821.94
2023-02-27T07:39:28.038Z,102831.06
2023-02-27T07:41:58.394Z,102829.72
2023-02-27T07:44:28.996Z,102825.09
2023-02-27T07:46:56.538Z,102824.69
2023-02-27T07:49:24.068Z,102825.00
2023-02-27T07:51:51.567Z,102823.75
2023-02-27T07:54:18.818Z,102821.38
2023-02-27T07:56:45.982Z,102817.66
2023-02-27T07:59:13.376Z,102814.75
2023-02-27T08:01:40.993Z,102821.28
2023-02-27T08:04:08.349Z,102818.25
2023-02-27T08:06:35.734Z,102814.38
2023-02-27T08:09:03.040Z,102807.06
2023-02-27T08:11:30.515Z,102811.88
2023-02-27T08:14:00.878Z,102815.03
2023-02-27T08:16:29.654Z,102812.88
2023-02-27T08:18:58.179Z,102820.31
2023-02-27T08:21:26.744Z,102823.31
2023-02-27T08:23:57.175Z,102829.13
2023-02-27T08:26:24.723Z,102822.59
2023-02-27T08:28:55.741Z,102836.00
2023-02-27T08:31:34.988Z,102835.72
2023-02-27T08:34:19.172Z,102843.25
2023-02-27T08:36:58.271Z,102844.59
2023-02-27T08:40:19.066Z,102848.72
2023-02-27T09:01:29.464Z,102853.13
2023-02-27T09:16:58.880Z,102850.56
2023-02-27T09:19:29.381Z,102852.84
2023-02-27T09:21:56.781Z,102859.72
2023-02-27T09:24:24.281Z,102860.31
2023-02-27T09:26:51.925Z,102856.22
2023-02-27T09:29:19.230Z,102858.22
2023-02-27T09:31:47.269Z,102862.09
2023-02-27T09:34:14.727Z,102858.28
2023-02-27T09:36:43.031Z,102863.88
2023-02-27T09:39:10.603Z,102863.56
2023-02-27T09:42:02.203Z,102860.91
2023-02-27T09:44:46.276Z,102878.78
2023-02-27T09:47:48.355Z,102870.47
2023-02-27T09:50:42.520Z,102875.34
2023-02-27T09:53:21.825Z,102875.72
2023-02-27T09:55:50.693Z,102871.88
2023-02-27T09:58:34.925Z,102869.75
2023-02-27T10:01:14.547Z,102873.59
2023-02-27T10:04:15.079Z,102873.06
2023-02-27T10:07:06.277Z,102875.41
2023-02-27T10:09:54.879Z,102880.91
2023-02-27T10:12:39.035Z,102887.63
2023-02-27T10:15:38.892Z,102880.34
2023-02-27T10:18:39.570Z,102876.41
2023-02-27T10:21:12.834Z,102867.69
2023-02-27T10:23:53.426Z,102875.31
2023-02-27T10:26:26.627Z,102879.41
2023-02-27T10:28:54.417Z,102876.19
2023-02-27T10:31:31.684Z,102876.44
2023-02-27T10:34:01.159Z,102879.75
2023-02-27T10:36:34.053Z,102880.25
2023-02-27T10:39:08.080Z,102878.63
2023-02-27T10:41:37.980Z,102869.06
2023-02-27T10:44:05.432Z,102863.03
2023-02-27T10:46:38.336Z,102864.88
2023-02-27T10:49:19.970Z,102871.22
2023-02-27T10:52:22.370Z,102862.00
2023-02-27T10:54:49.814Z,102854.41
2023-02-27T10:57:19.559Z,102853.88
2023-02-27T10:59:55.842Z,102844.50
2023-02-27T11:02:37.286Z,102844.88
2023-02-27T11:05:07.907Z,102847.03
2023-02-27T11:07:38.635Z,102843.13
2023-02-27T11:10:14.453Z,102834.72
2023-02-27T11:12:56.700Z,102827.22
2023-02-27T11:15:29.003Z,102829.66
2023-02-27T11:18:18.812Z,102827.31
2023-02-27T11:20:50.696Z,102823.41
2023-02-27T11:23:25.062Z,102820.25
2023-02-27T11:26:17.502Z,102825.09
2023-02-27T11:28:44.729Z,102826.38
2023-02-27T11:31:23.799Z,102816.38
2023-02-27T11:33:57.688Z,102817.19
2023-02-27T11:36:45.440Z,102812.03
2023-02-27T11:39:49.651Z,102807.41
2023-02-27T11:42:33.873Z,102806.28
2023-02-27T11:45:09.025Z,102804.66
2023-02-27T11:47:40.525Z,102808.22
2023-02-27T11:50:42.637Z,102805.41
2023-02-27T11:53:43.180Z,102809.47
2023-02-27T11:56:21.384Z,102807.97
2023-02-27T11:59:18.045Z,102808.25
2023-02-27T12:02:11.485Z,102803.78
2023-02-27T12:05:04.223Z,102793.03
2023-02-27T12:07:57.773Z,102802.38
2023-02-27T12:11:13.205Z,102800.25
2023-02-27T12:13:49.852Z,102804.97
2023-02-27T12:17:01.810Z,102791.88
2023-02-27T12:19:44.638Z,102792.19
2023-02-27T12:22:47.090Z,102781.72
2023-02-27T12:25:46.583Z,102790.25
2023-02-27T12:28:45.849Z,102790.03
2023-02-27T12:31:36.878Z,102789.09
2023-02-27T12:34:08.829Z,102783.94
2023-02-27T12:36:36.058Z,102783.75
2023-02-27T12:39:04.739Z,102790.03
2023-02-27T12:42:07.214Z,102781.34
2023-02-27T12:44:49.530Z,102777.44
2023-02-27T12:47:32.378Z,102774.66
2023-02-27T12:50:18.283Z,102770.09
2023-02-27T12:53:01.026Z,102772.03
2023-02-27T12:55:57.707Z,102781.09
2023-02-27T12:59:11.596Z,102771.31
2023-02-27T13:02:16.984Z,102757.63
2023-02-27T13:05:00.314Z,102764.09
2023-02-27T13:08:02.513Z,102766.03
2023-02-27T13:10:49.517Z,102772.31
2023-02-27T13:13:47.110Z,102766.19
2023-02-27T13:16:42.491Z,102760.22
2023-02-27T13:19:35.104Z,102755.47
2023-02-27T13:22:58.792Z,102762.75
2023-02-27T13:25:26.836Z,102757.63
2023-02-27T13:28:06.968Z,102754.16
2023-02-27T13:30:46.208Z,102749.03
2023-02-27T13:33:32.750Z,102751.81
2023-02-27T13:36:39.692Z,102753.25
2023-02-27T13:39:49.159Z,102759.81
2023-02-27T13:42:29.062Z,102760.31
2023-02-27T13:45:02.186Z,102749.63
2023-02-27T13:47:50.040Z,102750.72
2023-02-27T13:50:22.671Z,102754.41
2023-02-27T13:52:50.409Z,102745.81
2023-02-27T13:55:43.861Z,102756.53
2023-02-27T13:58:18.791Z,102750.59
2023-02-27T14:00:57.286Z,102747.25
2023-02-27T14:03:30.591Z,102752.53
2023-02-27T14:06:02.327Z,102750.91
2023-02-27T14:08:38.523Z,102747.44
2023-02-27T14:11:22.921Z,102748.75
2023-02-27T14:13:50.329Z,102746.66
2023-02-27T14:16:41.695Z,102742.41
2023-02-27T14:19:18.009Z,102744.50
2023-02-27T14:22:22.792Z,102744.75
2023-02-27T14:25:06.493Z,102753.50
2023-02-27T14:27:53.801Z,102744.53
2023-02-27T14:30:34.840Z,102738.25
2023-02-27T14:33:39.536Z,102742.41
2023-02-27T14:36:22.558Z,102738.69
2023-02-27T14:38:53.157Z,102737.75
2023-02-27T14:41:55.700Z,102744.06
2023-02-27T14:44:27.335Z,102741.56
2023-02-27T14:46:58.817Z,102739.00
2023-02-27T14:49:34.578Z,102727.38
2023-02-27T14:52:23.323Z,102724.75
2023-02-27T14:54:51.887Z,102722.91
2023-02-27T14:57:26.685Z,102724.47
2023-02-27T14:59:56.861Z,102728.56
2023-02-27T15:02:36.450Z,102723.06
2023-02-27T15:05:03.628Z,102737.75
2023-02-27T15:07:34.478Z,102722.13
2023-02-27T15:10:06.112Z,102722.28
2023-02-27T15:12:39.786Z,102721.50
2023-02-27T15:15:10.764Z,102720.94
2023-02-27T15:17:46.637Z,102715.16
2023-02-27T15:20:35.419Z,102715.66
2023-02-27T15:23:23.663Z,102707.53
2023-02-27T15:25:54.731Z,102711.72
2023-02-27T15:28:37.351Z,102711.25
2023-02-27T15:31:05.266Z,102710.78
2023-02-27T15:33:33.797Z,102725.44
2023-02-27T15:36:02.463Z,102726.84
2023-02-27T15:38:35.945Z,102718.50
2023-02-27T15:41:04.696Z,102718.59
2023-02-27T15:43:32.995Z,102718.91
2023-02-27T15:46:00.482Z,102723.75
2023-02-27T15:48:29.500Z,102724.41
2023-02-27T15:51:02.477Z,102720.78
2023-02-27T15:53:34.067Z,102720.84
2023-02-27T15:56:09.841Z,102718.66
2023-02-27T15:59:00.771Z,102717.88
2023-02-27T16:01:35.051Z,102724.41
2023-02-27T16:04:06.698Z,102719.19
2023-02-27T16:06:40.817Z,102726.50
2023-02-27T16:09:27.519Z,102740.75
2023-02-27T16:12:37.163Z,102734.97
2023-02-27T16:15:31.813Z,102735.44
2023-02-27T16:18:08.078Z,102732.84
2023-02-27T16:20:41.502Z,102735.38
2023-02-27T16:23:28.699Z,102736.28
2023-02-27T16:26:04.220Z,102736.22
2023-02-27T16:28:35.071Z,102734.19
2023-02-27T16:31:02.659Z,102737.41
2023-02-27T16:33:36.567Z,102740.66
2023-02-27T16:36:23.637Z,102738.59
2023-02-27T16:38:50.987Z,102743.38
2023-02-27T16:41:22.268Z,102743.69
2023-02-27T16:43:50.607Z,102737.03
2023-02-27T16:46:22.328Z,102743.47
2023-02-27T16:48:55.176Z,102738.66
2023-02-27T16:51:26.071Z,102744.34
2023-02-27T16:53:54.802Z,102746.66
2023-02-27T16:56:37.339Z,102746.28
2023-02-27T16:59:05.712Z,102740.66
2023-02-27T17:01:34.186Z,102748.94
2023-02-27T17:04:02.137Z,102743.25
2023-02-27T17:06:30.446Z,102755.16
2023-02-27T17:08:57.991Z,102758.19
2023-02-27T17:11:25.267Z,102753.44
2023-02-27T17:13:52.442Z,102753.13
2023-02-27T17:16:19.667Z,102751.03
2023-02-27T17:18:46.947Z,102753.28
2023-02-27T17:21:14.513Z,102758.25
2023-02-27T17:23:41.996Z,102757.88
2023-02-27T17:26:09.292Z,102761.94
2023-02-27T17:28:36.581Z,102757.19
2023-02-27T17:31:09.664Z,102765.34
2023-02-27T17:33:36.801Z,102769.47
2023-02-27T17:36:06.728Z,102765.75
2023-02-27T17:38:34.360Z,102772.47
2023-02-27T17:41:08.474Z,102771.44
2023-02-27T17:43:35.854Z,102776.22
2023-02-27T17:46:07.577Z,102780.31
2023-02-27T17:48:35.669Z,102779.22
2023-02-27T17:51:10.129Z,102781.59
2023-02-27T17:53:38.552Z,102784.81
2023-02-27T17:56:07.123Z,102777.44
2023-02-27T17:58:35.012Z,102785.91
2023-02-27T18:01:11.585Z,102790.13
2023-02-27T18:03:40.079Z,102792.56
2023-02-27T18:06:08.069Z,102793.31
2023-02-27T18:08:38.024Z,102794.81
2023-02-27T18:11:10.769Z,102799.94
2023-02-27T18:13:38.862Z,102795.47
2023-02-27T18:16:06.631Z,102803.13
2023-02-27T18:18:37.545Z,102805.72
2023-02-27T18:21:21.806Z,102804.72
2023-02-27T18:23:51.365Z,102801.03
2023-02-27T18:26:30.106Z,102818.19
2023-02-27T18:29:05.230Z,102809.13
2023-02-27T18:31:40.419Z,102807.22
2023-02-27T18:34:09.506Z,102807.06
2023-02-27T18:36:38.117Z,102805.63
2023-02-27T18:39:06.662Z,102818.34
2023-02-27T18:41:38.048Z,102804.28
2023-02-27T18:44:09.435Z,102804.19
2023-02-27T18:46:46.613Z,102803.81
2023-02-27T18:49:26.334Z,102805.50
2023-02-27T18:51:56.793Z,102809.75
2023-02-27T18:54:24.863Z,102817.34
2023-02-27T18:56:54.876Z,102809.44
2023-02-27T18:59:34.307Z,102811.97
2023-02-27T19:09:32.543Z,102805.47
2023-02-27T19:12:55.210Z,102818.94
2023-02-27T19:22:35.132Z,102807.56
2023-02-27T19:25:55.267Z,102818.63
2023-02-27T19:29:01.584Z,102818.22
2023-02-27T19:31:53.751Z,102820.56
2023-02-27T19:38:07.309Z,102822.47
2023-02-27T19:41:00.966Z,102824.00
2023-02-27T19:44:09.327Z,102827.31
2023-02-27T19:46:54.430Z,102825.22
2023-02-27T19:49:48.687Z,102830.13
2023-02-27T19:52:50.077Z,102823.91
2023-02-27T19:55:37.801Z,102832.63
2023-02-27T19:58:27.847Z,102828.13
2023-02-27T20:04:37.252Z,102828.44
2023-02-27T20:07:57.340Z,102829.06
2023-02-27T20:11:13.054Z,102829.56
2023-02-27T20:13:42.170Z,102831.75
2023-02-27T20:16:16.853Z,102835.88
2023-02-27T20:18:56.915Z,102832.84
2023-02-27T20:21:33.841Z,102831.56
2023-02-27T20:24:11.650Z,102826.97
2023-02-27T20:26:53.929Z,102828.25
2023-02-27T20:29:23.945Z,102827.94
2023-02-27T20:31:53.446Z,102826.84
2023-02-27T20:34:26.566Z,102834.34
2023-02-27T20:36:56.112Z,102832.25
2023-02-27T20:39:29.001Z,102822.66
2023-02-27T20:41:56.257Z,102818.03
2023-02-27T20:44:23.846Z,102820.88
2023-02-27T20:46:51.257Z,102820.75
2023-02-27T20:49:18.824Z,102828.34
2023-02-27T20:51:46.316Z,102826.31
2023-02-27T20:54:20.084Z,102822.72
2023-02-27T20:56:52.280Z,102824.13
2023-02-27T20:59:21.515Z,102823.09
2023-02-27T21:01:52.111Z,102832.50
2023-02-27T21:04:46.016Z,102831.50
2023-02-27T21:07:16.529Z,102828.59
2023-02-27T21:09:43.776Z,102828.28
2023-02-27T21:12:11.886Z,102831.47
2023-02-27T21:14:39.549Z,102823.28
2023-02-27T21:17:06.930Z,102822.16
2023-02-27T21:19:34.268Z,102824.44
2023-02-27T21:22:01.698Z,102832.59
2023-02-27T21:24:32.470Z,102826.28
2023-02-27T21:26:59.981Z,102823.59
2023-02-27T21:29:27.125Z,102820.91
2023-02-27T21:31:54.680Z,102821.59
2023-02-27T21:34:27.928Z,102833.53
2023-02-27T21:36:55.898Z,102827.25
2023-02-27T21:39:28.454Z,102824.66
2023-02-27T21:41:56.049Z,102819.47
2023-02-27T21:44:27.177Z,102822.97
2023-02-27T21:46:54.830Z,102834.13
2023-02-27T21:49:28.262Z,102828.25
2023-02-27T21:51:55.913Z,102829.03
2023-02-27T21:54:23.427Z,102825.75
2023-02-27T21:56:50.800Z,102824.09
2023-02-27T21:59:20.371Z,102830.94
2023-02-27T22:01:48.770Z,102827.59
2023-02-27T22:04:18.512Z,102826.78
2023-02-27T22:06:47.072Z,102822.50
2023-02-27T22:09:14.816Z,102825.09
2023-02-27T22:11:43.993Z,102822.50
2023-02-27T22:14:12.496Z,102821.69
2023-02-27T22:16:40.596Z,102812.13
2023-02-27T22:19:12.188Z,102815.63
2023-02-27T22:21:40.075Z,102820.09
2023-02-27T22:24:08.607Z,102815.72
2023-02-27T22:26:36.295Z,102813.91
2023-02-27T22:29:05.757Z,102819.81
2023-02-27T22:31:38.055Z,102824.75
2023-02-27T22:34:18.041Z,102829.94
2023-02-27T22:36:48.653Z,102831.34
2023-02-27T22:39:15.742Z,102826.91
2023-02-27T22:41:43.668Z,102829.91
2023-02-27T22:44:15.078Z,102831.59
2023-02-27T22:46:47.464Z,102831.59
2023-02-27T22:49:18.055Z,102830.72
2023-02-27T22:51:45.488Z,102827.19
2023-02-27T22:54:14.941Z,102829.78
2023-02-27T22:56:43.038Z,102833.28
2023-02-27T22:59:10.466Z,102838.34
2023-02-27T23:01:38.475Z,102834.84
2023-02-27T23:04:11.462Z,102841.63
2023-02-27T23:06:40.592Z,102845.81
2023-02-27T23:09:21.177Z,102850.00
2023-02-27T23:11:48.622Z,102846.38
2023-02-27T23:14:17.222Z,102853.50
2023-02-27T23:16:45.879Z,102853.38
2023-02-27T23:19:20.152Z,102856.75
2023-02-27T23:21:47.545Z,102858.44
2023-02-27T23:24:21.158Z,102858.34
2023-02-27T23:26:51.920Z,102856.44
2023-02-27T23:29:20.110Z,102858.03
2023-02-27T23:31:48.052Z,102850.03
2023-02-27T23:34:15.293Z,102853.31
2023-02-27T23:36:42.586Z,102856.69
2023-02-27T23:39:09.920Z,102859.06
2023-02-27T23:41:37.099Z,102865.84
2023-02-27T23:44:23.121Z,102859.63
2023-02-27T23:46:50.539Z,102858.06
2023-02-27T23:49:17.679Z,102858.75
2023-02-27T23:51:45.212Z,102868.13
2023-02-27T23:54:12.711Z,102860.19
2023-02-27T23:56:40.297Z,102858.28
2023-02-27T23:59:08.171Z,102858.19
